Time;durP1;ratioP1;P1;durP2;ratioP2;P2;SDS_P1;SDS_P2;PMS_P1;PMS_P2;Temp;Humidity;BMP_temperature;BMP_pressure;BME280_temperature;BME280_humidity;BME280_pressure;Samples;Min_cycle;Max_cycle;Signal;HPM_P1;HPM_P2
2023/10/20 00:02:23;;;;;;;15.93;14.43;;;22.50;99.90;;;;;;6229763;28;89302;-67
2023/10/20 00:05:25;;;;;;;16.58;15.00;;;22.50;99.90;;;;;;6213149;28;90265;-67
2023/10/20 00:08:28;;;;;;;16.10;14.50;;;22.50;99.90;;;;;;6213087;28;89026;-67
2023/10/20 00:11:30;;;;;;;16.92;15.23;;;22.50;99.90;;;;;;6215508;28;89038;-67
2023/10/20 00:14:32;;;;;;;16.38;14.77;;;22.50;99.90;;;;;;6209544;28;88320;-67
2023/10/20 00:17:34;;;;;;;17.88;16.00;;;22.50;99.90;;;;;;6209236;28;89036;-67
2023/10/20 00:20:36;;;;;;;16.17;14.68;;;22.50;99.90;;;;;;6220624;28;89076;-67
2023/10/20 00:23:39;;;;;;;17.60;15.90;;;22.50;99.90;;;;;;6223699;28;89066;-67
2023/10/20 00:26:41;;;;;;;17.10;15.50;;;22.50;99.90;;;;;;6229033;28;88327;-67
2023/10/20 00:29:43;;;;;;;17.13;15.52;;;22.50;99.90;;;;;;6210223;28;89262;-67
2023/10/20 00:32:45;;;;;;;17.33;15.73;;;22.50;99.90;;;;;;6218769;28;88035;-67
2023/10/20 00:35:47;;;;;;;16.95;15.35;;;22.50;99.90;;;;;;6219192;28;88915;-67
2023/10/20 00:38:50;;;;;;;17.27;15.57;;;22.50;99.90;;;;;;6224846;28;88981;-67
2023/10/20 00:41:52;;;;;;;17.40;15.70;;;22.50;99.90;;;;;;6221753;28;89041;-67
2023/10/20 00:44:54;;;;;;;17.52;15.82;;;22.50;99.90;;;;;;6209855;28;89044;-67
2023/10/20 00:47:57;;;;;;;17.25;15.55;;;22.50;99.90;;;;;;6212003;28;89037;-67
2023/10/20 00:51:00;;;;;;;17.00;15.40;;;22.40;99.90;;;;;;6215912;28;89013;-67
2023/10/20 00:54:04;;;;;;;17.73;16.08;;;22.40;99.90;;;;;;6221364;28;90379;-67
2023/10/20 00:57:06;;;;;;;17.80;16.13;;;22.40;99.90;;;;;;6219948;28;88652;-67
2023/10/20 01:00:09;;;;;;;17.58;15.90;;;22.40;99.90;;;;;;6215833;28;89022;-67
2023/10/20 01:03:11;;;;;;;17.88;16.17;;;22.40;99.90;;;;;;6216690;28;89074;-67
2023/10/20 01:06:13;;;;;;;17.95;16.20;;;22.40;99.90;;;;;;6220629;28;89896;-68
2023/10/20 01:09:25;;;;;;;17.95;16.17;;;22.40;99.90;;;;;;6210216;28;89038;-67
2023/10/20 01:12:27;;;;;;;17.35;15.75;;;22.40;99.90;;;;;;6221502;28;89061;-67
2023/10/20 01:15:29;;;;;;;17.95;16.25;;;22.40;99.90;;;;;;6221509;28;89017;-67
2023/10/20 01:18:31;;;;;;;17.85;16.08;;;22.40;99.90;;;;;;6209591;28;88992;-67
2023/10/20 01:21:33;;;;;;;18.25;16.52;;;22.40;99.90;;;;;;6224117;28;89026;-68
2023/10/20 01:24:36;;;;;;;17.77;16.08;;;22.40;99.90;;;;;;6214287;28;89646;-67
2023/10/20 01:27:39;;;;;;;17.95;16.25;;;22.40;99.90;;;;;;6216290;28;88357;-67
2023/10/20 01:30:40;;;;;;;18.60;16.63;;;22.40;99.90;;;;;;6222138;28;89098;-67
2023/10/20 01:33:42;;;;;;;17.73;16.08;;;22.40;99.90;;;;;;6209384;28;89078;-67
2023/10/20 01:36:44;;;;;;;18.15;16.35;;;22.40;99.90;;;;;;6215132;28;92501;-67
2023/10/20 01:39:48;;;;;;;18.92;17.13;;;22.40;99.90;;;;;;6209614;28;89000;-67
2023/10/20 01:42:50;;;;;;;18.42;16.65;;;22.40;99.90;;;;;;6217009;28;88979;-67
2023/10/20 01:45:53;;;;;;;17.60;16.00;;;22.40;99.90;;;;;;6209553;28;87951;-67
2023/10/20 01:48:55;;;;;;;17.95;16.25;;;22.40;99.90;;;;;;6214035;28;87972;-67
2023/10/20 01:51:57;;;;;;;18.67;16.88;;;22.40;99.90;;;;;;6212919;28;89472;-67
2023/10/20 01:55:00;;;;;;;17.77;16.08;;;22.40;99.90;;;;;;6207959;28;89063;-67
2023/10/20 01:58:02;;;;;;;18.20;16.50;;;22.40;99.90;;;;;;6211969;28;88541;-67
2023/10/20 02:01:04;;;;;;;18.52;16.70;;;22.40;99.90;;;;;;6208650;28;89187;-67
2023/10/20 02:04:06;;;;;;;17.13;15.50;;;22.40;99.90;;;;;;6219145;28;89472;-67
2023/10/20 02:07:08;;;;;;;18.02;16.33;;;22.40;99.90;;;;;;6218218;28;89934;-67
2023/10/20 02:10:12;;;;;;;17.38;15.70;;;22.30;99.90;;;;;;6211097;28;89129;-67
2023/10/20 02:13:14;;;;;;;17.52;15.88;;;22.40;99.90;;;;;;6222242;28;89115;-67
2023/10/20 02:16:16;;;;;;;18.00;16.23;;;22.40;99.90;;;;;;6220780;28;87918;-67
2023/10/20 02:19:18;;;;;;;17.45;15.85;;;22.40;99.90;;;;;;6213856;28;89074;-67
2023/10/20 02:22:20;;;;;;;17.70;16.00;;;22.40;99.90;;;;;;6223362;28;89093;-67
2023/10/20 02:25:23;;;;;;;17.63;15.93;;;22.40;99.90;;;;;;6221012;28;89350;-67
2023/10/20 02:28:26;;;;;;;17.70;16.00;;;22.30;99.90;;;;;;6222835;28;88410;-67
2023/10/20 02:31:28;;;;;;;17.20;15.60;;;22.30;99.90;;;;;;6231874;28;89528;-67
2023/10/20 02:34:32;;;;;;;18.08;16.20;;;22.30;99.90;;;;;;6215787;28;89014;-68
2023/10/20 02:37:34;;;;;;;17.30;15.60;;;22.30;99.90;;;;;;6220337;28;90002;-67
2023/10/20 02:40:37;;;;;;;17.70;16.10;;;22.40;99.90;;;;;;6231470;28;87882;-67
2023/10/20 02:43:39;;;;;;;17.08;15.48;;;22.30;99.90;;;;;;6220036;28;87959;-67
2023/10/20 02:46:41;;;;;;;17.35;15.65;;;22.30;99.90;;;;;;6212271;28;89065;-67
2023/10/20 02:49:43;;;;;;;17.48;15.88;;;22.30;99.90;;;;;;6212419;28;89013;-67
2023/10/20 02:52:45;;;;;;;16.70;15.07;;;22.30;99.90;;;;;;6217007;28;89094;-67
2023/10/20 02:55:48;;;;;;;18.48;16.58;;;22.30;99.90;;;;;;6211418;28;89343;-67
2023/10/20 02:58:50;;;;;;;17.08;15.48;;;22.30;99.90;;;;;;6218929;28;88419;-68
2023/10/20 03:01:55;;;;;;;16.58;15.07;;;22.30;99.90;;;;;;6224217;28;88789;-67
2023/10/20 03:04:57;;;;;;;17.40;15.70;;;22.30;99.90;;;;;;6227113;28;89115;-67
2023/10/20 03:07:59;;;;;;;17.15;15.55;;;22.30;99.90;;;;;;6214911;28;90042;-68
2023/10/20 03:11:04;;;;;;;17.23;15.55;;;22.30;99.90;;;;;;6223944;28;89077;-67
2023/10/20 03:14:06;;;;;;;16.88;15.27;;;22.30;99.90;;;;;;6213700;28;89145;-67
2023/10/20 03:17:09;;;;;;;17.23;15.52;;;22.30;99.90;;;;;;6218973;28;88962;-67
2023/10/20 03:20:14;;;;;;;16.50;15.00;;;22.30;99.90;;;;;;6218092;28;89180;-68
2023/10/20 03:23:17;;;;;;;17.08;15.48;;;22.30;99.90;;;;;;6215283;28;89080;-67
2023/10/20 03:26:22;;;;;;;16.95;15.38;;;22.30;99.90;;;;;;6209154;28;89445;-67
2023/10/20 03:29:24;;;;;;;17.30;15.70;;;22.30;99.90;;;;;;6227486;28;87300;-67
2023/10/20 03:32:26;;;;;;;18.98;17.00;;;22.30;99.90;;;;;;6209331;28;89007;-67
2023/10/20 03:35:28;;;;;;;18.13;16.35;;;22.30;99.90;;;;;;6205696;28;89104;-67
2023/10/20 03:38:30;;;;;;;16.77;15.20;;;22.20;99.90;;;;;;6209875;28;90113;-67
2023/10/20 03:41:34;;;;;;;17.25;15.65;;;22.30;99.90;;;;;;6205092;28;89392;-67
2023/10/20 03:44:37;;;;;;;16.88;15.27;;;22.20;99.90;;;;;;6205921;28;88141;-67
2023/10/20 03:47:39;;;;;;;16.90;15.32;;;22.30;99.90;;;;;;6214419;28;89627;-67
2023/10/20 03:50:44;;;;;;;16.83;15.23;;;22.30;99.90;;;;;;6211699;28;87944;-67
2023/10/20 03:53:52;;;;;;;17.15;15.55;;;22.30;99.90;;;;;;6218016;28;89229;-67
2023/10/20 03:56:57;;;;;;;17.17;15.57;;;22.30;99.90;;;;;;6211608;28;89205;-67
2023/10/20 04:00:14;;;;;;;16.73;15.13;;;22.30;99.90;;;;;;6213028;28;88168;-67
2023/10/20 04:03:16;;;;;;;18.25;16.50;;;22.30;99.90;;;;;;6220929;28;89155;-67
2023/10/20 04:06:19;;;;;;;17.35;15.75;;;22.30;99.90;;;;;;6206036;28;87946;-67
2023/10/20 04:09:20;;;;;;;16.92;15.43;;;22.30;99.90;;;;;;6217777;28;89539;-67
2023/10/20 04:12:24;;;;;;;17.08;15.40;;;22.30;99.90;;;;;;6221794;28;89007;-67
2023/10/20 04:15:26;;;;;;;17.38;15.68;;;22.30;99.90;;;;;;6214606;28;89106;-67
2023/10/20 04:18:32;;;;;;;17.40;15.75;;;22.30;99.90;;;;;;6221485;28;87945;-67
2023/10/20 04:21:35;;;;;;;16.98;15.30;;;22.30;99.90;;;;;;6215330;28;89048;-68
2023/10/20 04:24:37;;;;;;;16.55;15.05;;;22.30;99.90;;;;;;6221539;28;88992;-68
2023/10/20 04:27:46;;;;;;;17.27;15.68;;;22.30;99.90;;;;;;6216620;28;89100;-67
2023/10/20 04:48:07;;;;;;;17.40;15.80;;;22.40;99.90;;;;;;6211520;28;87293;-67
2023/10/20 04:51:18;;;;;;;17.15;15.55;;;22.30;99.90;;;;;;6210108;28;88537;-67
2023/10/20 04:54:22;;;;;;;17.08;15.48;;;22.30;99.90;;;;;;6214633;28;88856;-67
2023/10/20 04:57:49;;;;;;;17.02;15.35;;;22.40;99.90;;;;;;6223018;28;88232;-68
2023/10/20 05:01:03;;;;;;;17.10;15.50;;;22.40;99.90;;;;;;6215168;28;89134;-68
2023/10/20 05:04:13;;;;;;;17.45;15.85;;;22.30;99.90;;;;;;6221726;28;88379;-68
2023/10/20 05:07:17;;;;;;;16.85;15.27;;;22.40;99.90;;;;;;6206579;28;89077;-68
2023/10/20 05:10:20;;;;;;;15.70;14.25;;;22.40;99.90;;;;;;6214573;28;89572;-68
2023/10/20 05:13:22;;;;;;;16.98;15.30;;;22.40;99.90;;;;;;6212753;28;90157;-68
2023/10/20 05:16:28;;;;;;;17.02;15.35;;;22.40;99.90;;;;;;6215205;28;89040;-67
2023/10/20 05:19:32;;;;;;;17.58;15.88;;;22.40;99.90;;;;;;6228943;28;89427;-68
2023/10/20 05:22:35;;;;;;;17.35;15.70;;;22.40;99.90;;;;;;6221002;28;89105;-69
2023/10/20 05:25:37;;;;;;;17.70;15.98;;;22.40;99.90;;;;;;6218190;28;89074;-69
2023/10/20 05:28:39;;;;;;;17.15;15.55;;;22.40;99.90;;;;;;6222950;28;89156;-68
2023/10/20 05:31:43;;;;;;;17.13;15.52;;;22.40;99.90;;;;;;6220243;28;89468;-68
2023/10/20 05:34:45;;;;;;;16.73;15.13;;;22.50;99.90;;;;;;6215800;28;88734;-69
2023/10/20 05:37:47;;;;;;;16.95;15.32;;;22.40;99.90;;;;;;6212127;28;87935;-68
2023/10/20 05:40:58;;;;;;;18.13;16.42;;;22.50;99.90;;;;;;6214513;28;89082;-69
2023/10/20 05:44:01;;;;;;;17.38;15.77;;;22.50;99.90;;;;;;6215551;28;90259;-69
2023/10/20 05:47:04;;;;;;;17.77;16.08;;;22.50;99.90;;;;;;6215490;28;88985;-69
2023/10/20 05:50:08;;;;;;;17.92;16.10;;;22.50;99.90;;;;;;6209587;28;89397;-69
2023/10/20 05:53:11;;;;;;;17.83;16.13;;;22.50;99.90;;;;;;6218395;28;89032;-69
2023/10/20 05:56:13;;;;;;;16.75;15.15;;;22.50;99.90;;;;;;6210814;28;88132;-69
2023/10/20 05:59:15;;;;;;;17.20;15.55;;;22.50;99.90;;;;;;6210740;28;89114;-69
2023/10/20 06:02:18;;;;;;;17.35;15.75;;;22.50;99.90;;;;;;6225502;28;90559;-69
2023/10/20 06:05:20;;;;;;;17.58;15.90;;;22.50;99.90;;;;;;6218300;28;88236;-68
2023/10/20 06:08:22;;;;;;;17.35;15.60;;;22.50;99.90;;;;;;6223148;28;89078;-69
2023/10/20 06:11:24;;;;;;;17.55;15.90;;;22.50;99.90;;;;;;6215057;28;89024;-69
2023/10/20 06:14:27;;;;;;;17.92;16.15;;;22.50;99.90;;;;;;6221628;28;89954;-69
2023/10/20 06:17:30;;;;;;;17.35;15.65;;;22.50;99.90;;;;;;6213245;28;89131;-68
2023/10/20 06:20:32;;;;;;;17.80;16.00;;;22.50;99.90;;;;;;6215966;28;89059;-69
2023/10/20 06:23:34;;;;;;;17.20;15.52;;;22.50;99.90;;;;;;6215471;28;87957;-69
2023/10/20 06:26:36;;;;;;;16.40;14.90;;;22.50;99.90;;;;;;6215188;28;89580;-69
2023/10/20 06:29:46;;;;;;;17.10;15.50;;;22.50;99.90;;;;;;6224200;28;88711;-69
2023/10/20 06:33:16;;;;;;;16.90;15.30;;;22.50;99.90;;;;;;6216083;28;87954;-69
2023/10/20 06:36:25;;;;;;;16.75;15.15;;;22.50;99.90;;;;;;6219319;28;87324;-69
2023/10/20 06:39:27;;;;;;;16.67;15.07;;;22.50;99.90;;;;;;6231046;28;89073;-68
2023/10/20 06:42:30;;;;;;;16.52;14.95;;;22.50;99.90;;;;;;6213794;28;89232;-68
2023/10/20 06:45:32;;;;;;;16.60;15.00;;;22.50;99.90;;;;;;6226352;28;90000;-69
2023/10/20 06:48:35;;;;;;;16.85;15.25;;;22.60;99.90;;;;;;6225832;28;89051;-69
2023/10/20 06:51:37;;;;;;;16.58;14.98;;;22.60;99.90;;;;;;6217248;28;89155;-69
2023/10/20 06:54:39;;;;;;;16.85;15.25;;;22.60;99.90;;;;;;6219434;28;89940;-68
2023/10/20 06:57:41;;;;;;;17.30;15.50;;;22.60;99.90;;;;;;6219564;28;91171;-69
2023/10/20 07:00:44;;;;;;;16.75;15.15;;;22.60;99.90;;;;;;6229542;28;89170;-69
2023/10/20 07:03:47;;;;;;;16.15;14.65;;;22.50;99.90;;;;;;6230113;28;89336;-69
2023/10/20 07:06:51;;;;;;;16.27;14.68;;;22.60;99.90;;;;;;6215195;28;88323;-69
2023/10/20 07:09:54;;;;;;;15.90;14.30;;;22.60;99.90;;;;;;6208419;28;89091;-69
2023/10/20 07:12:56;;;;;;;16.15;14.52;;;22.60;99.90;;;;;;6217418;28;89125;-69
2023/10/20 07:15:58;;;;;;;15.55;14.10;;;22.50;99.90;;;;;;6230486;28;89960;-69
2023/10/20 07:19:06;;;;;;;15.93;14.43;;;22.60;99.90;;;;;;6217190;28;88042;-69
2023/10/20 07:22:08;;;;;;;15.95;14.45;;;22.60;99.90;;;;;;6207086;28;89066;-69
2023/10/20 07:25:11;;;;;;;15.40;13.98;;;22.60;99.90;;;;;;6214667;28;89185;-69
2023/10/20 07:28:12;;;;;;;15.35;13.80;;;22.50;99.90;;;;;;6222862;28;88986;-69
2023/10/20 07:31:16;;;;;;;15.63;14.13;;;22.60;99.90;;;;;;6219392;28;89289;-69
2023/10/20 07:34:19;;;;;;;15.13;13.63;;;22.60;99.90;;;;;;6217906;28;89430;-69
2023/10/20 07:37:21;;;;;;;15.88;14.38;;;22.60;99.90;;;;;;6206584;28;88327;-69
2023/10/20 07:40:26;;;;;;;15.40;13.90;;;22.60;99.90;;;;;;6223121;28;89104;-69
2023/10/20 07:43:28;;;;;;;15.02;13.63;;;22.60;99.90;;;;;;6220138;28;88890;-68
2023/10/20 07:46:31;;;;;;;14.98;13.57;;;22.60;99.90;;;;;;6217267;28;89963;-68
2023/10/20 07:49:34;;;;;;;15.50;14.10;;;22.60;99.90;;;;;;6207654;28;90438;-69
2023/10/20 07:52:36;;;;;;;15.63;14.07;;;22.60;99.90;;;;;;6217466;28;88962;-69
2023/10/20 07:55:38;;;;;;;14.73;13.32;;;22.60;99.90;;;;;;6219458;28;88973;-69
2023/10/20 07:58:40;;;;;;;15.07;13.68;;;22.60;99.90;;;;;;6220742;28;89347;-69
2023/10/20 08:01:42;;;;;;;14.98;13.65;;;22.60;99.90;;;;;;6216045;28;89078;-69
2023/10/20 08:04:45;;;;;;;14.95;13.52;;;22.70;99.90;;;;;;6217143;28;89429;-69
2023/10/20 08:07:49;;;;;;;14.98;13.55;;;22.60;99.90;;;;;;6220728;28;88421;-69
2023/10/20 08:10:51;;;;;;;15.68;14.07;;;22.60;99.90;;;;;;6221427;28;89030;-69
2023/10/20 08:13:53;;;;;;;15.02;13.63;;;22.60;99.90;;;;;;6210041;28;88404;-69
2023/10/20 08:16:56;;;;;;;15.32;13.82;;;22.60;99.90;;;;;;6212003;28;88894;-69
2023/10/20 08:19:59;;;;;;;14.73;13.32;;;22.60;99.90;;;;;;6222094;28;89210;-69
2023/10/20 08:23:01;;;;;;;15.73;14.23;;;22.60;99.90;;;;;;6216733;28;89275;-69
2023/10/20 08:26:03;;;;;;;15.38;13.88;;;22.60;99.90;;;;;;6221502;28;88943;-69
2023/10/20 08:29:06;;;;;;;15.20;13.70;;;22.60;99.90;;;;;;6224672;28;89035;-68
2023/10/20 08:32:08;;;;;;;23.42;15.10;;;22.60;99.90;;;;;;6207479;28;89166;-69
2023/10/20 08:35:11;;;;;;;15.70;14.00;;;22.60;99.90;;;;;;6212882;28;88931;-69
2023/10/20 08:38:13;;;;;;;15.45;13.90;;;22.60;99.90;;;;;;6207775;28;88584;-69
2023/10/20 08:41:17;;;;;;;15.32;13.85;;;22.60;99.90;;;;;;6211430;28;88004;-69
2023/10/20 08:44:20;;;;;;;15.20;13.73;;;22.60;99.90;;;;;;6224545;28;89452;-69
2023/10/20 08:47:24;;;;;;;15.43;13.93;;;22.60;99.90;;;;;;6229963;28;89996;-69
2023/10/20 08:50:29;;;;;;;14.85;13.45;;;22.70;99.90;;;;;;6227351;28;88962;-69
2023/10/20 08:53:34;;;;;;;15.95;14.35;;;22.60;99.90;;;;;;6216437;28;88855;-69
2023/10/20 08:56:36;;;;;;;15.30;13.70;;;22.60;99.90;;;;;;6220571;28;88992;-69
2023/10/20 08:59:38;;;;;;;15.98;14.38;;;22.60;99.90;;;;;;6217455;28;87912;-69
2023/10/20 09:02:41;;;;;;;15.55;14.05;;;22.60;99.90;;;;;;6224773;28;88996;-69
2023/10/20 09:05:44;;;;;;;15.27;13.88;;;22.60;99.90;;;;;;6228641;28;89148;-69
2023/10/20 09:08:49;;;;;;;15.38;13.90;;;22.60;99.90;;;;;;6219800;28;87147;-69
2023/10/20 09:11:53;;;;;;;15.85;14.25;;;22.60;99.90;;;;;;6208818;28;89160;-69
2023/10/20 09:14:56;;;;;;;15.45;14.02;;;22.60;99.90;;;;;;6221420;28;87957;-69
2023/10/20 09:17:58;;;;;;;15.57;14.07;;;22.60;99.90;;;;;;6222002;28;89981;-69
2023/10/20 09:21:05;;;;;;;15.95;14.45;;;22.60;99.90;;;;;;6216866;28;89312;-70
2023/10/20 09:24:08;;;;;;;15.48;13.98;;;22.60;99.90;;;;;;6212928;28;89091;-69
2023/10/20 09:27:11;;;;;;;15.38;13.70;;;22.70;99.90;;;;;;6220339;28;89056;-69
2023/10/20 09:30:16;;;;;;;15.52;14.02;;;22.60;99.90;;;;;;6209851;28;89105;-68
2023/10/20 09:33:18;;;;;;;14.65;13.23;;;22.70;99.90;;;;;;6225193;28;89042;-69
2023/10/20 09:36:22;;;;;;;15.55;14.05;;;22.70;99.90;;;;;;6232270;28;89043;-69
2023/10/20 09:39:34;;;;;;;15.93;14.43;;;22.70;99.90;;;;;;6219659;28;88427;-69
2023/10/20 09:42:47;;;;;;;15.93;14.32;;;22.70;99.90;;;;;;6212178;28;88054;-69
2023/10/20 09:45:56;;;;;;;15.57;13.98;;;22.70;99.90;;;;;;6224363;28;88984;-70
2023/10/20 09:49:01;;;;;;;15.45;13.95;;;22.70;99.90;;;;;;6208670;28;90051;-69
2023/10/20 09:52:05;;;;;;;15.63;13.88;;;22.70;99.90;;;;;;6221803;28;89318;-70
2023/10/20 09:55:07;;;;;;;14.43;13.02;;;22.70;99.90;;;;;;6219976;28;89104;-71
2023/10/20 09:58:11;;;;;;;14.70;13.20;;;22.70;99.90;;;;;;6220362;28;89159;-70
2023/10/20 10:01:14;;;;;;;14.70;13.25;;;22.70;99.90;;;;;;6224921;28;89052;-68
2023/10/20 10:04:24;;;;;;;15.25;13.80;;;22.70;99.90;;;;;;6218744;28;89068;-70
2023/10/20 10:07:33;;;;;;;14.60;13.20;;;22.80;99.90;;;;;;6217830;28;89197;-69
2023/10/20 10:10:36;;;;;;;14.70;13.30;;;22.80;99.90;;;;;;6223376;28;88414;-69
2023/10/20 10:13:41;;;;;;;14.95;13.45;;;22.80;99.90;;;;;;6225189;28;89279;-70
2023/10/20 10:16:51;;;;;;;14.60;13.07;;;22.80;99.90;;;;;;6230483;28;88972;-68
2023/10/20 10:19:55;;;;;;;15.05;13.50;;;22.90;99.90;;;;;;6215178;28;89986;-69
2023/10/20 10:23:03;;;;;;;14.60;13.07;;;22.90;99.90;;;;;;6207692;28;88080;-68
2023/10/20 10:26:13;;;;;;;15.13;13.63;;;23.00;99.90;;;;;;6220150;28;89102;-68
2023/10/20 10:29:15;;;;;;;14.50;13.10;;;23.00;99.90;;;;;;6220526;28;87962;-67
2023/10/20 10:32:18;;;;;;;14.82;13.40;;;23.00;99.90;;;;;;6223127;28;90059;-66
2023/10/20 10:35:20;;;;;;;14.68;13.18;;;23.00;99.90;;;;;;6216683;28;89237;-68
2023/10/20 10:38:27;;;;;;;15.38;13.80;;;23.00;99.90;;;;;;6210821;28;89113;-67
2023/10/20 10:41:30;;;;;;;13.95;12.48;;;23.00;99.90;;;;;;6215460;28;87527;-68
2023/10/20 10:44:34;;;;;;;14.27;12.88;;;23.00;99.90;;;;;;6216382;28;89082;-68
2023/10/20 10:47:36;;;;;;;13.57;12.27;;;23.00;99.90;;;;;;6221629;28;88991;-68
2023/10/20 10:50:39;;;;;;;15.10;13.50;;;23.10;99.90;;;;;;6211654;28;90250;-68
2023/10/20 10:53:43;;;;;;;14.43;12.95;;;23.00;99.90;;;;;;6213813;28;89067;-68
2023/10/20 10:56:46;;;;;;;15.95;13.13;;;23.00;99.90;;;;;;6225941;28;89112;-68
2023/10/20 10:59:49;;;;;;;14.77;13.02;;;23.10;99.90;;;;;;6217197;28;88008;-68
2023/10/20 11:02:52;;;;;;;14.02;12.60;;;23.10;99.90;;;;;;6221251;28;89069;-68
2023/10/20 11:05:55;;;;;;;15.23;13.07;;;23.10;99.90;;;;;;6211987;28;89012;-68
2023/10/20 11:08:59;;;;;;;14.57;13.07;;;23.10;99.90;;;;;;6213310;28;87937;-68
2023/10/20 11:12:02;;;;;;;14.07;12.68;;;23.10;99.90;;;;;;6211527;28;87208;-69
2023/10/20 11:15:05;;;;;;;14.05;12.65;;;23.10;99.90;;;;;;6212340;28;89090;-68
2023/10/20 11:18:10;;;;;;;14.18;12.77;;;23.00;99.80;;;;;;6215477;28;89336;-68
2023/10/20 11:21:13;;;;;;;15.27;13.68;;;23.10;99.80;;;;;;6218728;28;89413;-69
2023/10/20 11:24:28;;;;;;;14.55;13.05;;;23.10;99.80;;;;;;6206201;28;89142;-68
2023/10/20 11:27:40;;;;;;;14.85;13.32;;;23.10;99.70;;;;;;6228576;28;88840;-69
2023/10/20 11:30:45;;;;;;;14.55;13.05;;;23.10;99.60;;;;;;6220409;28;89050;-68
2023/10/20 11:33:47;;;;;;;14.65;13.18;;;23.10;99.60;;;;;;6230573;28;88631;-69
2023/10/20 11:36:49;;;;;;;14.70;13.30;;;23.10;99.50;;;;;;6214386;28;89035;-69
2023/10/20 11:39:52;;;;;;;14.68;12.80;;;23.10;99.50;;;;;;6209881;28;89402;-68
2023/10/20 11:42:55;;;;;;;14.23;12.82;;;23.10;99.50;;;;;;6208427;28;88353;-69
2023/10/20 11:45:57;;;;;;;13.80;12.43;;;23.10;99.50;;;;;;6207928;28;89464;-69
2023/10/20 11:48:58;;;;;;;13.88;12.48;;;23.10;99.40;;;;;;6206219;28;89189;-69
2023/10/20 11:52:02;;;;;;;14.32;12.82;;;23.20;99.60;;;;;;6220047;28;90186;-69
2023/10/20 11:55:08;;;;;;;14.63;13.07;;;23.20;99.40;;;;;;6208413;28;87757;-69
2023/10/20 11:58:10;;;;;;;13.27;11.93;;;23.20;99.40;;;;;;6212177;28;89014;-69
2023/10/20 12:01:12;;;;;;;13.63;12.23;;;23.20;99.40;;;;;;6218411;28;88999;-69
2023/10/20 12:04:15;;;;;;;13.90;12.60;;;23.20;99.40;;;;;;6221457;28;89055;-68
2023/10/20 12:07:18;;;;;;;13.50;12.20;;;23.20;99.30;;;;;;6206828;28;89029;-69
2023/10/20 12:10:23;;;;;;;14.38;12.88;;;23.30;99.40;;;;;;6218593;28;89568;-68
2023/10/20 12:13:25;;;;;;;13.60;11.98;;;23.20;99.40;;;;;;6210263;28;88417;-69
2023/10/20 12:16:27;;;;;;;14.55;13.15;;;23.30;99.40;;;;;;6226379;28;89111;-68
2023/10/20 12:19:29;;;;;;;13.90;12.50;;;23.20;99.30;;;;;;6220212;28;89079;-68
2023/10/20 12:22:31;;;;;;;14.35;12.85;;;23.30;99.40;;;;;;6214244;28;89966;-69
2023/10/20 12:25:35;;;;;;;15.52;12.60;;;23.20;99.40;;;;;;6216156;28;87922;-69
2023/10/20 12:28:37;;;;;;;14.52;13.07;;;23.30;99.80;;;;;;6215977;28;89010;-69
2023/10/20 12:31:39;;;;;;;14.55;13.05;;;23.30;99.90;;;;;;6217214;28;87598;-69
2023/10/20 12:34:41;;;;;;;14.05;12.43;;;23.30;99.90;;;;;;6205226;28;89135;-69
2023/10/20 12:37:43;;;;;;;13.40;12.10;;;23.30;99.90;;;;;;6215872;28;89102;-68
2023/10/20 12:40:46;;;;;;;14.50;12.30;;;23.30;99.90;;;;;;6217480;28;89399;-69
2023/10/20 12:43:49;;;;;;;14.35;12.32;;;23.30;99.90;;;;;;6213520;28;88348;-68
2023/10/20 12:46:51;;;;;;;13.60;12.27;;;23.30;99.80;;;;;;6207013;28;89170;-69
2023/10/20 12:49:54;;;;;;;14.30;12.57;;;23.30;99.80;;;;;;6205843;28;89072;-69
2023/10/20 12:52:56;;;;;;;13.43;12.13;;;23.30;99.80;;;;;;6224993;28;88574;-68
2023/10/20 12:56:00;;;;;;;13.65;12.35;;;23.40;99.70;;;;;;6216239;28;88984;-68
2023/10/20 12:59:02;;;;;;;13.68;12.32;;;23.40;99.60;;;;;;6209248;28;87847;-68
2023/10/20 13:02:04;;;;;;;14.15;12.68;;;23.40;99.60;;;;;;6218952;28;88969;-68
2023/10/20 13:05:07;;;;;;;14.85;12.35;;;23.40;99.60;;;;;;6228209;28;87969;-68
2023/10/20 13:08:09;;;;;;;13.90;12.50;;;23.40;99.50;;;;;;6215134;28;89174;-69
2023/10/20 13:11:12;;;;;;;14.10;12.70;;;23.40;99.50;;;;;;6215363;28;89092;-69
2023/10/20 13:14:14;;;;;;;12.98;11.77;;;23.40;99.40;;;;;;6229754;28;87196;-69
2023/10/20 13:17:16;;;;;;;13.43;12.02;;;23.40;99.40;;;;;;6224617;28;88059;-69
2023/10/20 13:20:18;;;;;;;13.23;11.93;;;23.40;99.40;;;;;;6226260;28;89029;-69
2023/10/20 13:23:20;;;;;;;12.93;11.63;;;23.40;99.40;;;;;;6207025;28;88950;-69
2023/10/20 13:26:24;;;;;;;13.73;12.43;;;23.40;99.30;;;;;;6211551;28;89140;-69
2023/10/20 13:29:26;;;;;;;13.70;12.23;;;23.40;99.30;;;;;;6224598;28;89060;-68
2023/10/20 13:32:28;;;;;;;14.32;12.75;;;23.40;99.30;;;;;;6207726;28;89012;-69
2023/10/20 13:35:30;;;;;;;12.95;11.65;;;23.40;99.30;;;;;;6220642;28;90194;-69
2023/10/20 13:38:35;;;;;;;14.40;13.00;;;23.40;99.20;;;;;;6233781;28;89131;-69
2023/10/20 13:41:39;;;;;;;13.57;12.27;;;23.40;99.20;;;;;;6208810;28;89160;-69
2023/10/20 13:44:41;;;;;;;13.38;12.07;;;23.40;99.20;;;;;;6209797;28;87196;-69
2023/10/20 13:47:42;;;;;;;13.07;11.88;;;23.40;99.20;;;;;;6221027;28;89368;-69
2023/10/20 13:50:44;;;;;;;13.23;11.93;;;23.40;99.20;;;;;;6212309;28;89212;-69
2023/10/20 13:53:46;;;;;;;12.85;11.65;;;23.40;99.20;;;;;;6212304;28;90030;-69
2023/10/20 13:56:50;;;;;;;14.20;12.70;;;23.40;99.20;;;;;;6219869;28;89866;-69
2023/10/20 13:59:52;;;;;;;13.75;12.45;;;23.40;99.60;;;;;;6214507;28;89125;-69
2023/10/20 14:02:54;;;;;;;13.20;12.00;;;23.40;99.20;;;;;;6231592;28;89408;-69
2023/10/20 14:05:56;;;;;;;13.43;12.02;;;23.40;99.20;;;;;;6214632;28;89002;-69
2023/10/20 14:08:58;;;;;;;13.32;12.02;;;23.40;99.20;;;;;;6231734;28;89110;-69
2023/10/20 14:12:02;;;;;;;13.40;12.10;;;23.40;99.10;;;;;;6225990;28;88834;-69
2023/10/20 14:15:04;;;;;;;13.48;12.07;;;23.40;99.20;;;;;;6208452;28;88427;-69
2023/10/20 14:18:07;;;;;;;13.32;12.02;;;23.40;99.20;;;;;;6214438;28;87965;-69
2023/10/20 14:21:09;;;;;;;13.57;12.20;;;23.40;99.20;;;;;;6220867;28;89081;-70
2023/10/20 14:24:11;;;;;;;13.68;12.38;;;23.40;99.20;;;;;;6210110;28;90165;-70
2023/10/20 14:27:17;;;;;;;13.25;11.93;;;23.40;99.30;;;;;;6222475;28;89068;-69
2023/10/20 14:30:19;;;;;;;13.30;12.07;;;23.40;99.30;;;;;;6220222;28;88960;-69
2023/10/20 14:33:22;;;;;;;13.35;12.05;;;23.40;99.20;;;;;;6208226;28;89069;-70
2023/10/20 14:36:24;;;;;;;13.20;11.90;;;23.40;99.20;;;;;;6228318;28;89182;-70
2023/10/20 14:39:26;;;;;;;12.73;11.48;;;23.40;99.20;;;;;;6211121;28;89095;-70
2023/10/20 14:42:29;;;;;;;13.48;12.02;;;23.40;99.40;;;;;;6217212;28;89066;-69
2023/10/20 14:45:31;;;;;;;14.25;12.05;;;23.40;99.50;;;;;;6206674;28;88226;-71
2023/10/20 14:48:35;;;;;;;15.90;12.55;;;23.40;99.90;;;;;;6217096;28;89227;-70
2023/10/20 14:51:37;;;;;;;15.00;12.77;;;23.40;99.90;;;;;;6228846;28;89100;-70
2023/10/20 14:54:40;;;;;;;18.02;12.68;;;23.40;99.90;;;;;;6206627;28;90048;-71
2023/10/20 14:57:44;;;;;;;17.00;12.45;;;23.40;99.90;;;;;;6212633;28;89075;-71
2023/10/20 15:00:47;;;;;;;14.40;12.60;;;23.40;99.90;;;;;;6224850;28;88421;-71
2023/10/20 15:03:49;;;;;;;15.10;12.57;;;23.40;99.90;;;;;;6206959;28;89324;-72
2023/10/20 15:06:51;;;;;;;16.13;12.52;;;23.40;99.90;;;;;;6211489;28;89015;-71
2023/10/20 15:09:54;;;;;;;14.32;12.20;;;23.40;99.90;;;;;;6207526;28;89437;-71
2023/10/20 15:12:57;;;;;;;17.48;12.80;;;23.40;99.90;;;;;;6216001;28;89317;-71
2023/10/20 15:16:02;;;;;;;13.90;12.35;;;23.40;99.90;;;;;;6211650;28;88297;-71
2023/10/20 15:19:04;;;;;;;13.88;12.48;;;23.40;99.90;;;;;;6214877;28;89148;-69
2023/10/20 15:22:06;;;;;;;15.57;12.70;;;23.40;99.90;;;;;;6230018;28;89082;-72
2023/10/20 15:25:08;;;;;;;14.32;12.57;;;23.50;99.90;;;;;;6211057;28;90034;-70
2023/10/20 15:28:12;;;;;;;13.90;12.35;;;23.40;99.90;;;;;;6215652;28;89096;-70
2023/10/20 15:31:14;;;;;;;13.73;11.77;;;23.40;99.90;;;;;;6217948;28;89117;-70
2023/10/20 15:34:16;;;;;;;13.50;11.82;;;23.40;99.90;;;;;;6216293;28;89170;-72
2023/10/20 15:37:19;;;;;;;14.35;12.23;;;23.40;99.90;;;;;;6218860;28;89128;-70
2023/10/20 15:40:20;;;;;;;17.67;12.70;;;23.50;99.90;;;;;;6206006;28;89206;-70
2023/10/20 15:43:25;;;;;;;17.30;12.27;;;23.40;99.90;;;;;;6224185;28;90945;-71
2023/10/20 15:46:27;;;;;;;13.65;12.25;;;23.40;99.90;;;;;;6209953;28;88297;-70
2023/10/20 15:49:29;;;;;;;15.10;12.88;;;23.40;99.90;;;;;;6220061;28;87922;-70